createdAt,value
2022-12-31T00:00:10.744Z,23.33
2022-12-31T00:00:36.900Z,22.85
2022-12-31T00:00:56.835Z,22.85
2022-12-31T00:01:28.585Z,22.13
2022-12-31T00:02:00.572Z,22.13
2022-12-31T00:02:32.447Z,21.88
2022-12-31T00:03:04.474Z,21.24
2022-12-31T00:03:36.721Z,20.36
2022-12-31T00:04:08.950Z,19.79
2022-12-31T00:04:36.862Z,19.47
2022-12-31T00:04:56.480Z,19.31
2022-12-31T00:05:29.122Z,19.06
2022-12-31T00:06:00.704Z,18.66
2022-12-31T00:06:32.381Z,18.66
2022-12-31T00:07:04.503Z,18.50
2022-12-31T00:08:08.910Z,17.86
2022-12-31T00:08:37.068Z,17.46
2022-12-31T00:08:56.387Z,17.22
2022-12-31T00:09:29.032Z,17.22
2022-12-31T00:10:01.060Z,16.74
2022-12-31T00:10:32.468Z,16.25
2022-12-31T00:11:04.301Z,16.25
2022-12-31T00:11:36.684Z,16.25
2022-12-31T00:12:08.859Z,16.25
2022-12-31T00:12:36.829Z,16.25
2022-12-31T00:12:56.518Z,16.25
2022-12-31T00:13:28.644Z,16.57
2022-12-31T00:14:00.614Z,16.57
2022-12-31T00:14:32.282Z,16.25
2022-12-31T00:15:06.107Z,16.25
2022-12-31T00:15:36.844Z,16.25
2022-12-31T00:16:11.976Z,16.25
2022-12-31T00:16:37.002Z,16.25
2022-12-31T00:16:56.592Z,16.25
2022-12-31T00:17:28.633Z,16.57
2022-12-31T00:18:00.511Z,17.06
2022-12-31T00:18:32.491Z,17.06
2022-12-31T00:19:04.442Z,17.22
2022-12-31T00:19:36.730Z,17.62
2022-12-31T00:20:09.484Z,17.62
2022-12-31T00:20:36.885Z,18.18
2022-12-31T00:20:56.844Z,18.18
2022-12-31T00:21:28.760Z,17.62
2022-12-31T00:22:00.570Z,17.62
2022-12-31T00:22:32.401Z,17.62
2022-12-31T00:23:04.403Z,17.06
2022-12-31T00:23:36.656Z,17.06
2022-12-31T00:24:08.957Z,16.17
2022-12-31T00:24:36.716Z,17.06
2022-12-31T00:24:56.585Z,17.62
2022-12-31T00:25:29.011Z,17.62
2022-12-31T00:26:00.448Z,18.02
2022-12-31T00:26:32.366Z,18.02
2022-12-31T00:27:04.271Z,17.62
2022-12-31T00:27:36.554Z,17.62
2022-12-31T00:28:09.225Z,17.06
2022-12-31T00:28:36.772Z,17.06
2022-12-31T00:28:56.405Z,16.73
2022-12-31T00:29:28.635Z,16.73
2022-12-31T00:30:04.798Z,16.73
2022-12-31T00:30:32.496Z,15.84
2022-12-31T00:31:04.400Z,14.96
2022-12-31T00:31:36.853Z,14.96
2022-12-31T00:32:08.923Z,15.84
2022-12-31T00:32:37.103Z,16.01
2022-12-31T00:32:56.517Z,16.01
2022-12-31T00:33:28.732Z,15.29
2022-12-31T00:34:00.591Z,15.13
2022-12-31T00:34:32.379Z,15.13
2022-12-31T00:35:05.460Z,14.80
2022-12-31T00:35:36.529Z,14.80
2022-12-31T00:36:08.908Z,14.56
2022-12-31T00:36:36.798Z,14.56
2022-12-31T00:36:56.401Z,14.56
2022-12-31T00:37:28.667Z,14.56
2022-12-31T00:38:00.505Z,14.56
2022-12-31T00:38:32.309Z,14.80
2022-12-31T00:39:04.324Z,15.13
2022-12-31T00:39:36.526Z,15.13
2022-12-31T00:40:09.376Z,15.13
2022-12-31T00:40:37.221Z,15.13
2022-12-31T00:40:56.873Z,16.01
2022-12-31T00:41:29.225Z,17.13
2022-12-31T00:42:02.687Z,17.13
2022-12-31T00:42:33.737Z,17.86
2022-12-31T00:43:04.281Z,18.18
2022-12-31T00:43:36.567Z,18.91
2022-12-31T00:44:08.844Z,19.63
2022-12-31T00:44:37.357Z,19.79
2022-12-31T00:44:56.805Z,20.52
2022-12-31T00:45:31.617Z,20.52
2022-12-31T00:46:00.549Z,20.52
2022-12-31T00:46:32.472Z,20.52
2022-12-31T00:47:04.324Z,20.20
2022-12-31T00:47:36.695Z,19.79
2022-12-31T00:48:08.903Z,20.20
2022-12-31T00:48:36.871Z,20.92
2022-12-31T00:48:56.557Z,20.92
2022-12-31T00:49:28.699Z,21.24
2022-12-31T00:50:01.091Z,21.40
2022-12-31T00:50:32.802Z,21.72
2022-12-31T00:51:04.305Z,22.13
2022-12-31T00:51:36.634Z,22.13
2022-12-31T00:52:08.892Z,22.13
2022-12-31T00:52:36.938Z,22.13
2022-12-31T00:52:56.417Z,22.13
2022-12-31T00:53:28.633Z,22.13
2022-12-31T00:54:00.526Z,22.13
2022-12-31T00:54:32.382Z,22.13
2022-12-31T00:55:05.376Z,22.13
2022-12-31T00:55:36.682Z,22.69
2022-12-31T00:56:08.864Z,22.69
2022-12-31T00:56:37.190Z,22.13
2022-12-31T00:56:56.302Z,22.69
2022-12-31T00:57:28.886Z,23.17
2022-12-31T00:58:00.605Z,23.17
2022-12-31T00:58:32.262Z,22.45
2022-12-31T00:59:04.488Z,22.45
2022-12-31T00:59:37.356Z,22.45
2022-12-31T01:00:10.252Z,22.45
2022-12-31T01:00:37.187Z,22.45
2022-12-31T01:00:57.073Z,22.45
2022-12-31T01:01:28.901Z,22.29
2022-12-31T01:02:00.612Z,22.29
2022-12-31T01:02:32.375Z,22.29
2022-12-31T01:03:04.443Z,22.29
2022-12-31T01:03:36.648Z,22.29
2022-12-31T01:04:08.955Z,22.85
2022-12-31T01:04:36.778Z,23.58
2022-12-31T01:04:56.736Z,23.58
2022-12-31T01:05:28.992Z,23.01
2022-12-31T01:06:00.591Z,23.41
2022-12-31T01:06:32.241Z,23.98
2022-12-31T01:07:04.455Z,23.98
2022-12-31T01:07:36.894Z,23.41
2022-12-31T01:08:08.736Z,23.98
2022-12-31T01:08:36.778Z,24.14
2022-12-31T01:08:56.353Z,24.14
2022-12-31T01:09:28.682Z,24.30
2022-12-31T01:10:01.134Z,24.30
2022-12-31T01:10:32.186Z,24.14
2022-12-31T01:11:04.319Z,24.86
2022-12-31T01:11:36.796Z,24.86
2022-12-31T01:12:08.947Z,25.91
2022-12-31T01:12:36.821Z,25.58
2022-12-31T01:12:56.443Z,25.58
2022-12-31T01:13:28.568Z,25.58
2022-12-31T01:14:00.470Z,25.58
2022-12-31T01:14:32.267Z,24.70
2022-12-31T01:15:06.092Z,24.70
2022-12-31T01:15:37.083Z,24.70
2022-12-31T01:16:09.071Z,25.02
2022-12-31T01:16:37.162Z,25.02
2022-12-31T01:16:56.801Z,25.02
2022-12-31T01:17:28.608Z,25.58
2022-12-31T01:18:00.513Z,25.02
2022-12-31T01:18:32.269Z,23.90
2022-12-31T01:19:04.244Z,23.17
2022-12-31T01:19:36.808Z,22.69
2022-12-31T01:20:09.555Z,22.69
2022-12-31T01:20:37.542Z,23.17
2022-12-31T01:20:56.688Z,22.69
2022-12-31T01:21:28.610Z,22.69
2022-12-31T01:22:00.753Z,22.13
2022-12-31T01:22:32.542Z,21.56
2022-12-31T01:23:04.306Z,21.56
2022-12-31T01:23:36.787Z,21.88
2022-12-31T01:24:08.834Z,21.56
2022-12-31T01:24:36.828Z,21.08
2022-12-31T01:24:56.454Z,21.56
2022-12-31T01:25:29.029Z,21.56
2022-12-31T01:26:00.550Z,21.08
2022-12-31T01:26:32.316Z,21.08
2022-12-31T01:27:04.303Z,21.08
2022-12-31T01:27:36.615Z,20.20
2022-12-31T01:28:08.951Z,19.31
2022-12-31T01:28:36.854Z,20.20
2022-12-31T01:28:56.849Z,19.31
2022-12-31T01:29:28.645Z,19.15
2022-12-31T01:30:01.938Z,19.31
2022-12-31T01:30:32.330Z,19.31
2022-12-31T01:31:04.483Z,19.31
2022-12-31T01:31:36.905Z,19.63
2022-12-31T01:32:08.938Z,19.63
2022-12-31T01:32:37.061Z,19.63
2022-12-31T01:32:56.383Z,19.31
2022-12-31T01:33:28.660Z,18.74
2022-12-31T01:34:00.780Z,18.74
2022-12-31T01:34:32.262Z,19.47
2022-12-31T01:35:05.301Z,18.74
2022-12-31T01:35:36.649Z,19.31
2022-12-31T01:36:08.793Z,19.63
2022-12-31T01:36:37.225Z,19.63
2022-12-31T01:36:56.607Z,19.63
2022-12-31T01:37:28.615Z,20.52
2022-12-31T01:38:00.661Z,20.52
2022-12-31T01:38:32.379Z,19.63
2022-12-31T01:39:05.158Z,19.63
2022-12-31T01:39:36.897Z,19.63
2022-12-31T01:40:09.339Z,19.63
2022-12-31T01:40:36.907Z,19.63
2022-12-31T01:40:57.193Z,20.04
2022-12-31T01:41:28.681Z,20.04
2022-12-31T01:42:00.518Z,20.60
2022-12-31T01:42:32.647Z,20.60
2022-12-31T01:43:04.358Z,20.92
2022-12-31T01:43:37.529Z,21.24
2022-12-31T01:44:08.961Z,20.92
2022-12-31T01:44:36.783Z,20.92
2022-12-31T01:44:56.438Z,21.24
2022-12-31T01:45:29.609Z,21.24
2022-12-31T01:46:01.694Z,20.92
2022-12-31T01:46:32.248Z,20.92
2022-12-31T01:47:04.400Z,20.92
2022-12-31T01:47:36.602Z,20.92
2022-12-31T01:48:09.078Z,21.24
2022-12-31T01:48:36.895Z,21.24
2022-12-31T01:48:56.367Z,21.24
2022-12-31T01:49:28.617Z,21.24
2022-12-31T01:50:01.572Z,21.56
2022-12-31T01:50:32.557Z,22.13
2022-12-31T01:51:04.334Z,22.37
2022-12-31T01:51:36.569Z,22.13
2022-12-31T01:52:09.358Z,21.72
2022-12-31T01:52:36.878Z,21.72
2022-12-31T01:52:57.406Z,21.40
2022-12-31T01:53:28.669Z,21.24
2022-12-31T01:54:00.809Z,21.40
2022-12-31T01:54:32.394Z,21.40
2022-12-31T01:55:05.454Z,21.24
2022-12-31T01:55:37.092Z,21.24
2022-12-31T01:56:09.266Z,21.24
2022-12-31T01:56:37.149Z,21.24
2022-12-31T01:56:56.370Z,21.24
2022-12-31T01:57:28.891Z,21.24
2022-12-31T01:58:00.767Z,21.40
2022-12-31T01:58:32.366Z,21.97
2022-12-31T01:59:04.932Z,21.97
2022-12-31T01:59:37.025Z,22.69
2022-12-31T02:00:10.300Z,23.01
2022-12-31T02:00:37.059Z,22.29
2022-12-31T02:00:56.883Z,21.40
2022-12-31T02:01:28.746Z,21.24
2022-12-31T02:02:00.578Z,21.24
2022-12-31T02:02:32.307Z,22.13
2022-12-31T02:03:04.334Z,22.69
2022-12-31T02:03:36.525Z,22.69
2022-12-31T02:04:09.006Z,22.69
2022-12-31T02:04:37.013Z,21.81
2022-12-31T02:04:56.607Z,22.69
2022-12-31T02:05:29.089Z,23.01
2022-12-31T02:06:00.686Z,23.01
2022-12-31T02:06:32.396Z,23.01
2022-12-31T02:07:04.319Z,23.01
2022-12-31T02:07:36.613Z,22.69
2022-12-31T02:08:09.322Z,22.13
2022-12-31T02:08:41.842Z,21.56
2022-12-31T02:08:56.401Z,21.88
2022-12-31T02:09:28.599Z,21.88
2022-12-31T02:10:01.019Z,21.56
2022-12-31T02:10:32.626Z,21.56
2022-12-31T02:11:04.369Z,21.56
2022-12-31T02:11:36.666Z,21.56
2022-12-31T02:12:09.253Z,21.56
2022-12-31T02:12:36.865Z,21.08
2022-12-31T02:12:56.320Z,20.76
2022-12-31T02:13:28.636Z,21.08
2022-12-31T02:14:00.693Z,21.08
2022-12-31T02:14:32.715Z,21.56
2022-12-31T02:15:07.004Z,21.08
2022-12-31T02:15:38.504Z,20.92
2022-12-31T02:16:08.845Z,20.92
2022-12-31T02:16:36.935Z,21.08
2022-12-31T02:16:56.494Z,20.76
2022-12-31T02:17:28.653Z,20.76
2022-12-31T02:18:00.473Z,21.08
2022-12-31T02:18:32.221Z,21.56
2022-12-31T02:19:04.290Z,21.08
2022-12-31T02:19:36.953Z,21.08
2022-12-31T02:20:09.674Z,21.81
2022-12-31T02:20:36.833Z,22.53
2022-12-31T02:20:56.602Z,23.25
2022-12-31T02:21:28.623Z,23.25
2022-12-31T02:22:00.439Z,23.25
2022-12-31T02:22:32.296Z,23.25
2022-12-31T02:23:04.595Z,23.25
2022-12-31T02:23:36.599Z,23.81
2022-12-31T02:24:08.820Z,23.09
2022-12-31T02:24:36.900Z,22.13
2022-12-31T02:24:56.414Z,22.13
2022-12-31T02:25:29.111Z,22.69
2022-12-31T02:26:00.851Z,23.41
2022-12-31T02:26:32.232Z,23.41
2022-12-31T02:27:04.300Z,23.81
2022-12-31T02:27:36.929Z,23.41
2022-12-31T02:28:08.862Z,23.41
2022-12-31T02:28:36.904Z,23.41
2022-12-31T02:28:56.449Z,23.41
2022-12-31T02:29:28.645Z,22.45
2022-12-31T02:30:01.736Z,22.45
2022-12-31T02:30:32.327Z,21.88
2022-12-31T02:31:04.355Z,21.88
2022-12-31T02:31:37.068Z,21.88
2022-12-31T02:32:08.691Z,21.88
2022-12-31T02:32:37.219Z,22.45
2022-12-31T02:32:56.342Z,22.85
2022-12-31T02:33:28.686Z,22.85
2022-12-31T02:34:00.503Z,23.41
2022-12-31T02:34:32.336Z,23.98
2022-12-31T02:35:05.398Z,24.30
2022-12-31T02:35:36.578Z,24.62
2022-12-31T02:36:08.675Z,24.62
2022-12-31T02:36:36.860Z,24.62
2022-12-31T02:36:56.366Z,24.62
2022-12-31T02:37:28.714Z,25.35
2022-12-31T02:38:00.408Z,24.62
2022-12-31T02:38:32.321Z,25.35
2022-12-31T02:39:04.482Z,26.07
2022-12-31T02:39:36.679Z,26.07
2022-12-31T02:40:09.378Z,26.07
2022-12-31T02:40:36.970Z,26.23
2022-12-31T02:40:57.221Z,26.23
2022-12-31T02:41:28.576Z,26.79
2022-12-31T02:42:00.648Z,27.52
2022-12-31T02:42:32.331Z,27.52
2022-12-31T02:43:04.336Z,27.68
2022-12-31T02:43:36.583Z,27.68
2022-12-31T02:44:08.792Z,27.84
2022-12-31T02:44:36.849Z,28.24
2022-12-31T02:44:56.366Z,27.84
2022-12-31T02:45:29.515Z,27.68
2022-12-31T02:46:00.488Z,27.68
2022-12-31T02:46:32.485Z,27.68
2022-12-31T02:47:04.341Z,27.68
2022-12-31T02:47:36.535Z,27.68
2022-12-31T02:48:08.836Z,27.84
2022-12-31T02:48:36.948Z,27.68
2022-12-31T02:48:56.466Z,27.84
2022-12-31T02:49:28.670Z,28.24
2022-12-31T02:50:00.915Z,28.81
2022-12-31T02:50:32.307Z,28.81
2022-12-31T02:51:04.314Z,28.81
2022-12-31T02:51:36.604Z,28.81
2022-12-31T02:52:08.840Z,28.81
2022-12-31T02:52:36.900Z,29.13
2022-12-31T02:52:56.524Z,28.81
2022-12-31T02:53:28.636Z,28.81
2022-12-31T02:54:00.456Z,28.56
2022-12-31T02:54:32.159Z,27.84
2022-12-31T02:55:05.294Z,27.84
2022-12-31T02:55:36.452Z,28.56
2022-12-31T02:56:08.788Z,29.13
2022-12-31T02:56:36.836Z,29.29
2022-12-31T02:56:56.361Z,29.13
2022-12-31T02:57:28.781Z,29.13
2022-12-31T02:58:00.460Z,29.29
2022-12-31T02:58:32.246Z,30.58
2022-12-31T02:59:04.296Z,30.58
2022-12-31T02:59:46.517Z,30.58
2022-12-31T03:00:10.055Z,30.58
2022-12-31T03:00:36.950Z,31.13
2022-12-31T03:00:56.900Z,31.13
2022-12-31T03:01:29.200Z,31.86
2022-12-31T03:02:00.704Z,31.13
2022-12-31T03:02:32.499Z,30.57
2022-12-31T03:03:04.931Z,31.13
2022-12-31T03:03:36.573Z,31.13
2022-12-31T03:04:09.070Z,31.86
2022-12-31T03:04:36.849Z,32.18
2022-12-31T03:04:56.737Z,32.34
2022-12-31T03:05:29.055Z,32.34
2022-12-31T03:06:00.499Z,32.18
2022-12-31T03:06:32.431Z,32.34
2022-12-31T03:07:04.360Z,32.34
2022-12-31T03:07:36.884Z,32.34
2022-12-31T03:08:08.863Z,32.75
2022-12-31T03:08:37.186Z,33.07
2022-12-31T03:08:56.409Z,33.07
2022-12-31T03:09:28.676Z,33.79
2022-12-31T03:10:01.102Z,33.79
2022-12-31T03:10:32.642Z,34.20
2022-12-31T03:11:04.253Z,34.20
2022-12-31T03:11:36.476Z,34.20
2022-12-31T03:12:08.863Z,34.20
2022-12-31T03:12:37.044Z,34.20
2022-12-31T03:12:56.430Z,34.60
2022-12-31T03:13:28.645Z,34.60
2022-12-31T03:14:00.429Z,34.20
2022-12-31T03:14:32.216Z,34.20
2022-12-31T03:15:06.115Z,34.20
2022-12-31T03:15:36.778Z,33.79
2022-12-31T03:16:09.170Z,33.79
2022-12-31T03:16:37.194Z,33.79
2022-12-31T03:16:56.747Z,33.79
2022-12-31T03:17:28.875Z,34.20
2022-12-31T03:18:06.059Z,34.20
2022-12-31T03:18:32.390Z,34.20
2022-12-31T03:19:05.020Z,34.20
2022-12-31T03:19:37.470Z,34.60
2022-12-31T03:20:09.447Z,34.60
2022-12-31T03:20:37.791Z,34.20
2022-12-31T03:20:56.738Z,34.20
2022-12-31T03:21:28.886Z,34.20
2022-12-31T03:22:00.418Z,34.20
2022-12-31T03:22:32.284Z,34.20
2022-12-31T03:23:04.387Z,33.31
2022-12-31T03:23:36.671Z,32.83
2022-12-31T03:24:09.303Z,32.11
2022-12-31T03:24:36.846Z,31.54
2022-12-31T03:24:56.371Z,31.54
2022-12-31T03:25:29.143Z,31.54
2022-12-31T03:26:00.482Z,31.54
2022-12-31T03:26:32.348Z,31.54
2022-12-31T03:27:04.537Z,30.98
2022-12-31T03:27:36.495Z,30.98
2022-12-31T03:28:08.976Z,30.01
2022-12-31T03:28:36.988Z,30.01
2022-12-31T03:28:56.803Z,30.01
2022-12-31T03:29:28.610Z,29.69
2022-12-31T03:30:01.824Z,29.13
2022-12-31T03:30:32.426Z,28.80
2022-12-31T03:31:04.473Z,29.13
2022-12-31T03:31:36.934Z,29.45
2022-12-31T03:32:08.805Z,29.45
2022-12-31T03:32:37.027Z,29.45
2022-12-31T03:32:56.456Z,29.45
2022-12-31T03:33:28.703Z,29.45
2022-12-31T03:34:00.550Z,29.69
2022-12-31T03:34:32.292Z,29.69
2022-12-31T03:35:05.502Z,29.45
2022-12-31T03:35:37.094Z,29.13
2022-12-31T03:36:08.857Z,28.40
2022-12-31T03:36:36.989Z,28.40
2022-12-31T03:36:56.384Z,28.73
2022-12-31T03:37:29.906Z,28.73
2022-12-31T03:38:00.505Z,28.73
2022-12-31T03:38:32.227Z,28.00
2022-12-31T03:39:04.513Z,28.00
2022-12-31T03:39:36.439Z,28.00
2022-12-31T03:40:09.424Z,28.00
2022-12-31T03:40:36.845Z,28.40
2022-12-31T03:40:57.021Z,28.40
2022-12-31T03:41:28.725Z,28.40
2022-12-31T03:42:00.476Z,28.80
2022-12-31T03:42:32.258Z,28.80
2022-12-31T03:43:04.371Z,28.80
2022-12-31T03:43:36.640Z,28.80
2022-12-31T03:44:08.899Z,28.80
2022-12-31T03:44:36.912Z,28.80
2022-12-31T03:44:56.451Z,29.13
2022-12-31T03:45:29.974Z,29.85
2022-12-31T03:46:00.591Z,30.98
2022-12-31T03:46:32.318Z,32.27
2022-12-31T03:47:04.317Z,32.99
2022-12-31T03:47:36.746Z,32.99
2022-12-31T03:48:10.098Z,32.99
2022-12-31T03:48:36.856Z,32.99
2022-12-31T03:48:56.939Z,32.99
2022-12-31T03:49:28.750Z,32.83
2022-12-31T03:50:01.120Z,32.99
2022-12-31T03:50:32.329Z,32.99
2022-12-31T03:51:04.575Z,32.99
2022-12-31T03:51:36.544Z,32.83
2022-12-31T03:52:09.290Z,32.99
2022-12-31T03:52:36.824Z,33.15
2022-12-31T03:52:56.538Z,33.31
2022-12-31T03:53:28.810Z,34.04
2022-12-31T03:54:00.476Z,33.31
2022-12-31T03:54:32.289Z,33.15
2022-12-31T03:55:05.273Z,33.31
2022-12-31T03:55:36.491Z,33.31
2022-12-31T03:56:08.769Z,33.31
2022-12-31T03:56:36.772Z,33.31
2022-12-31T03:57:00.056Z,33.63
2022-12-31T03:57:28.622Z,34.20
2022-12-31T03:58:00.500Z,34.92
2022-12-31T03:58:32.390Z,34.92
2022-12-31T03:59:04.475Z,34.92
2022-12-31T03:59:36.831Z,34.92
2022-12-31T04:00:10.341Z,35.64
2022-12-31T04:00:36.999Z,35.64
2022-12-31T04:00:57.112Z,36.21
2022-12-31T04:01:28.869Z,36.53
2022-12-31T04:02:00.708Z,36.53
2022-12-31T04:02:32.385Z,36.53
2022-12-31T04:03:04.633Z,36.21
2022-12-31T04:03:36.511Z,35.81
2022-12-31T04:04:08.905Z,35.81
2022-12-31T04:04:36.902Z,36.21
2022-12-31T04:04:57.621Z,36.53
2022-12-31T04:05:29.069Z,36.21
2022-12-31T04:06:00.664Z,36.21
2022-12-31T04:06:32.251Z,36.21
2022-12-31T04:07:04.259Z,35.97
2022-12-31T04:07:36.868Z,35.08
2022-12-31T04:08:08.960Z,34.44
2022-12-31T04:08:36.936Z,34.44
2022-12-31T04:08:56.331Z,34.44
2022-12-31T04:09:29.792Z,35.08
2022-12-31T04:10:01.557Z,35.08
2022-12-31T04:10:32.407Z,34.20
2022-12-31T04:11:04.345Z,33.79
2022-12-31T04:11:36.544Z,33.31
2022-12-31T04:12:08.828Z,33.31
2022-12-31T04:12:36.982Z,33.72
2022-12-31T04:12:56.485Z,34.04
2022-12-31T04:13:28.780Z,34.04
2022-12-31T04:14:00.907Z,34.20
2022-12-31T04:14:32.232Z,34.20
2022-12-31T04:15:06.367Z,32.99
2022-12-31T04:15:36.598Z,34.20
2022-12-31T04:16:08.838Z,33.15
2022-12-31T04:16:37.193Z,33.15
2022-12-31T04:16:56.622Z,33.88
2022-12-31T04:17:28.666Z,34.92
2022-12-31T04:18:00.424Z,35.40
2022-12-31T04:18:32.532Z,35.40
2022-12-31T04:19:04.734Z,35.56
2022-12-31T04:19:36.727Z,35.56
2022-12-31T04:20:09.482Z,35.56
2022-12-31T04:20:37.629Z,35.56
2022-12-31T04:20:56.816Z,35.97
2022-12-31T04:21:34.631Z,35.97
2022-12-31T04:22:01.714Z,35.97
2022-12-31T04:22:32.331Z,35.97
2022-12-31T04:23:05.675Z,35.56
2022-12-31T04:23:36.434Z,35.40
2022-12-31T04:24:08.956Z,35.97
2022-12-31T04:24:36.999Z,35.97
2022-12-31T04:24:56.527Z,35.97
2022-12-31T04:25:29.208Z,35.97
2022-12-31T04:26:00.628Z,36.37
2022-12-31T04:26:32.250Z,35.97
2022-12-31T04:27:07.805Z,35.97
2022-12-31T04:27:37.099Z,35.40
2022-12-31T04:28:09.559Z,35.08
2022-12-31T04:28:36.834Z,35.08
2022-12-31T04:28:56.857Z,35.08
2022-12-31T04:29:28.668Z,35.08
2022-12-31T04:30:01.872Z,35.08
2022-12-31T04:30:33.957Z,34.36
2022-12-31T04:31:04.466Z,34.36
2022-12-31T04:31:36.641Z,34.36
2022-12-31T04:32:09.408Z,34.36
2022-12-31T04:32:36.875Z,33.47
2022-12-31T04:32:56.533Z,33.47
2022-12-31T04:33:28.780Z,34.36
2022-12-31T04:34:00.666Z,33.47
2022-12-31T04:34:32.258Z,32.59
2022-12-31T04:35:05.277Z,32.99
2022-12-31T04:35:36.720Z,32.27
2022-12-31T04:36:09.043Z,31.54
2022-12-31T04:36:36.944Z,31.54
2022-12-31T04:36:56.872Z,32.27
2022-12-31T04:37:28.879Z,32.27
2022-12-31T04:38:00.780Z,32.27
2022-12-31T04:38:32.454Z,32.43
2022-12-31T04:39:04.546Z,32.02
2022-12-31T04:39:38.187Z,31.86
2022-12-31T04:40:09.815Z,31.54
2022-12-31T04:40:37.245Z,31.38
2022-12-31T04:40:57.831Z,31.38
2022-12-31T04:41:28.885Z,31.38
2022-12-31T04:42:02.058Z,31.38
2022-12-31T04:42:32.505Z,31.38
2022-12-31T04:43:04.601Z,31.70
2022-12-31T04:43:36.563Z,31.38
2022-12-31T04:44:09.994Z,31.14
2022-12-31T04:44:37.143Z,31.70
2022-12-31T04:44:56.862Z,30.98
2022-12-31T04:45:30.672Z,31.70
2022-12-31T04:46:02.312Z,31.70
2022-12-31T04:46:33.698Z,31.70
2022-12-31T04:47:04.810Z,30.98
2022-12-31T04:47:36.713Z,30.98
2022-12-31T04:48:15.040Z,30.57
2022-12-31T04:48:41.079Z,30.25
2022-12-31T04:48:59.404Z,30.25
2022-12-31T04:49:30.666Z,30.25
2022-12-31T04:50:11.564Z,30.57
2022-12-31T04:50:35.197Z,30.57
2022-12-31T04:51:11.408Z,30.57
2022-12-31T04:51:42.531Z,30.25
2022-12-31T04:52:14.174Z,30.57
2022-12-31T04:52:43.938Z,30.57
2022-12-31T04:53:02.519Z,30.57
2022-12-31T04:53:31.014Z,30.98
2022-12-31T04:54:04.295Z,30.98
2022-12-31T04:54:35.059Z,30.57
2022-12-31T04:55:11.025Z,30.98
2022-12-31T04:55:42.360Z,30.98
2022-12-31T04:56:12.576Z,31.54
2022-12-31T04:56:46.604Z,32.27
2022-12-31T04:57:01.297Z,32.27
2022-12-31T04:57:36.497Z,32.11
2022-12-31T04:58:06.789Z,32.11
2022-12-31T04:58:36.600Z,32.11
2022-12-31T04:59:07.572Z,32.83
2022-12-31T04:59:44.728Z,32.83
2022-12-31T05:00:18.875Z,32.99
2022-12-31T05:00:38.465Z,33.31
2022-12-31T05:01:00.434Z,33.72
2022-12-31T05:01:31.862Z,33.72
2022-12-31T05:02:08.130Z,33.72
2022-12-31T05:02:34.113Z,32.99
2022-12-31T05:03:09.153Z,33.72
2022-12-31T05:03:37.918Z,33.72
2022-12-31T05:04:15.064Z,33.72
2022-12-31T05:04:38.902Z,33.72
2022-12-31T05:05:00.047Z,33.47
2022-12-31T05:05:32.299Z,34.04
2022-12-31T05:06:01.919Z,34.04
2022-12-31T05:06:34.295Z,33.31
2022-12-31T05:07:07.445Z,33.31
2022-12-31T05:07:39.829Z,34.04
2022-12-31T05:08:11.454Z,34.04
2022-12-31T05:08:39.622Z,34.28
2022-12-31T05:08:58.933Z,34.28
2022-12-31T05:09:31.537Z,34.28
2022-12-31T05:10:04.846Z,34.04
2022-12-31T05:10:39.576Z,33.79
2022-12-31T05:11:07.242Z,33.79
2022-12-31T05:11:39.448Z,33.79
2022-12-31T05:12:10.740Z,33.79
2022-12-31T05:12:41.927Z,33.79
2022-12-31T05:13:02.855Z,33.31
2022-12-31T05:13:33.597Z,32.59
2022-12-31T05:14:02.988Z,32.59
2022-12-31T05:14:34.357Z,32.59
2022-12-31T05:15:11.874Z,32.18
2022-12-31T05:15:45.743Z,31.70
2022-12-31T05:16:13.760Z,30.98
2022-12-31T05:16:39.973Z,30.98
2022-12-31T05:17:00.604Z,31.54
2022-12-31T05:17:31.103Z,31.54
2022-12-31T05:18:02.115Z,31.54
2022-12-31T05:18:36.891Z,30.98
2022-12-31T05:19:05.747Z,29.69
2022-12-31T05:19:39.227Z,28.80
2022-12-31T05:20:19.428Z,29.37
2022-12-31T05:20:50.400Z,29.37
2022-12-31T05:21:06.162Z,29.37
2022-12-31T05:21:32.571Z,29.37
2022-12-31T05:22:05.014Z,30.25
2022-12-31T05:22:36.735Z,30.25
2022-12-31T05:23:14.186Z,30.25
2022-12-31T05:23:41.872Z,30.25
2022-12-31T05:24:12.150Z,30.25
2022-12-31T05:24:39.118Z,29.37
2022-12-31T05:24:58.270Z,29.37
2022-12-31T05:25:32.121Z,28.64
2022-12-31T05:26:03.207Z,28.64
2022-12-31T05:26:34.679Z,28.64
2022-12-31T05:27:06.378Z,28.24
2022-12-31T05:27:38.996Z,28.00
2022-12-31T05:28:11.350Z,28.00
2022-12-31T05:28:41.095Z,28.00
2022-12-31T05:28:58.886Z,27.52
2022-12-31T05:29:30.560Z,28.00
2022-12-31T05:30:10.169Z,27.52
2022-12-31T05:30:38.125Z,26.87
2022-12-31T05:31:06.922Z,26.87
2022-12-31T05:31:39.283Z,26.87
2022-12-31T05:32:11.246Z,26.87
2022-12-31T05:32:38.950Z,26.87
2022-12-31T05:32:59.514Z,26.87
2022-12-31T05:33:30.902Z,26.71
2022-12-31T05:34:01.764Z,27.20
2022-12-31T05:34:33.733Z,27.20
2022-12-31T05:35:13.731Z,26.71
2022-12-31T05:35:38.451Z,26.71
2022-12-31T05:36:10.995Z,26.71
2022-12-31T05:36:39.076Z,26.47
2022-12-31T05:36:58.601Z,26.47
2022-12-31T05:37:31.468Z,26.47
2022-12-31T05:38:02.355Z,26.47
2022-12-31T05:38:35.230Z,26.47
2022-12-31T05:39:06.969Z,26.47
2022-12-31T05:39:38.078Z,25.91
2022-12-31T05:40:14.199Z,25.91
2022-12-31T05:40:38.296Z,25.58
2022-12-31T05:41:02.845Z,25.58
2022-12-31T05:41:31.240Z,25.02
2022-12-31T05:42:04.992Z,25.02
2022-12-31T05:42:34.713Z,24.46
2022-12-31T05:43:07.458Z,24.30
2022-12-31T05:43:40.359Z,24.30
2022-12-31T05:44:10.954Z,24.30
2022-12-31T05:44:42.605Z,23.98
2022-12-31T05:45:00.063Z,23.98
2022-12-31T05:45:33.636Z,23.41
2022-12-31T05:46:03.654Z,23.41
2022-12-31T05:46:35.894Z,23.41
2022-12-31T05:47:11.654Z,23.41
2022-12-31T05:47:38.549Z,23.98
2022-12-31T05:48:10.345Z,24.30
2022-12-31T05:48:43.257Z,24.30
2022-12-31T05:48:59.201Z,25.02
2022-12-31T05:49:30.753Z,25.02
2022-12-31T05:50:10.764Z,25.91
2022-12-31T05:50:36.281Z,26.23
2022-12-31T05:51:05.913Z,26.23
2022-12-31T05:51:40.073Z,26.23
2022-12-31T05:52:11.467Z,25.75
2022-12-31T05:52:41.540Z,25.75
2022-12-31T05:52:57.984Z,25.75
2022-12-31T05:53:30.973Z,25.02
2022-12-31T05:54:03.820Z,25.02
2022-12-31T05:54:34.880Z,25.75
2022-12-31T05:55:12.830Z,26.23
2022-12-31T05:55:39.823Z,26.96
2022-12-31T05:56:11.974Z,26.96
2022-12-31T05:56:42.106Z,26.96
2022-12-31T05:56:58.731Z,26.96
2022-12-31T05:57:32.651Z,25.75
2022-12-31T05:58:02.424Z,25.75
2022-12-31T05:58:34.207Z,25.02
2022-12-31T05:59:06.843Z,25.02
2022-12-31T05:59:39.569Z,25.42
2022-12-31T06:00:16.347Z,25.42
2022-12-31T06:00:39.541Z,25.02
2022-12-31T06:01:02.255Z,25.42
2022-12-31T06:01:31.241Z,25.91
2022-12-31T06:02:05.368Z,26.63
2022-12-31T06:02:35.575Z,27.36
2022-12-31T06:03:07.145Z,27.68
2022-12-31T06:03:40.636Z,27.68
2022-12-31T06:04:15.743Z,27.68
2022-12-31T06:04:41.506Z,27.52
2022-12-31T06:05:02.764Z,27.52
2022-12-31T06:05:32.266Z,27.19
2022-12-31T06:06:03.294Z,27.52
2022-12-31T06:06:36.926Z,27.52
2022-12-31T06:07:13.713Z,27.52
2022-12-31T06:07:43.967Z,28.08
2022-12-31T06:08:09.419Z,27.52
2022-12-31T06:08:37.130Z,27.52
2022-12-31T06:08:56.735Z,27.52
2022-12-31T06:09:29.134Z,27.52
2022-12-31T06:10:02.748Z,28.24
2022-12-31T06:10:32.518Z,28.24
2022-12-31T06:11:04.833Z,28.97
2022-12-31T06:11:36.680Z,30.02
2022-12-31T06:12:09.955Z,29.69
2022-12-31T06:12:37.036Z,29.69
2022-12-31T06:12:56.879Z,30.58
2022-12-31T06:13:29.285Z,29.69
2022-12-31T06:14:00.671Z,29.69
2022-12-31T06:14:32.515Z,29.69
2022-12-31T06:15:11.462Z,28.81
2022-12-31T06:15:37.022Z,28.81
2022-12-31T06:16:09.624Z,28.24
2022-12-31T06:16:42.212Z,27.52
2022-12-31T06:16:56.759Z,27.52
2022-12-31T06:17:28.996Z,27.52
2022-12-31T06:18:00.662Z,28.00
2022-12-31T06:18:32.764Z,28.24
2022-12-31T06:19:04.530Z,28.81
2022-12-31T06:19:37.206Z,28.81
2022-12-31T06:20:13.346Z,28.81
2022-12-31T06:20:37.196Z,29.29
2022-12-31T06:20:59.959Z,29.85
2022-12-31T06:21:29.906Z,29.85
2022-12-31T06:22:00.684Z,29.13
2022-12-31T06:22:32.563Z,28.64
2022-12-31T06:23:04.550Z,28.64
2022-12-31T06:23:37.113Z,29.13
2022-12-31T06:24:09.755Z,29.45
2022-12-31T06:24:37.063Z,30.17
2022-12-31T06:24:56.794Z,30.17
2022-12-31T06:25:29.596Z,30.90
2022-12-31T06:26:01.093Z,31.14
2022-12-31T06:26:33.023Z,31.14